Leigh, NE

2:46 PM CDT on April 28, 2015 (GMT -0500)
St. John's Lutheran Church ELCA Northeast of Columbus NE USA | | Change Station
CLOSE
Current Station
Personal Weather Station
Location: Columbus, NE
Elevation: 1444 ft
Nearby Weather Stations

Elev 1444 ft 41.51 °N, 97.26 °W | Updated 6 seconds ago

Clear
Clear
69.8 °F
Feels Like 69.8 °F
N
15.9
Wind Variable Wind from North
Gusts 22.1 mph

Today
High -- | Low -- °F
--% Chance of Precip.
Yesterday
High -- | Low -- °F
Precip. -- in
6:29 AM 8:23 PM
Waxing Gibbous, 76% visible
Pressure 30.18 in
Visibility 10.0 miles
Clouds Few 5500 ft
Dew Point 50 °F
Humidity 49%
Rainfall 0.00 in
Snow Depth Not available.
UV 9 out of 12
Pollen 9.80 out of 12
Air Quality Not available.
Flu Activity Local Activity
METAR KOLU 281935Z AUTO 33011G18KT 10SM FEW055 21/06 A3018 RMK AO1

More Conditions Fewer Conditions

Pressure 30.18 in
Visibility 10.0 miles
Clouds Few 5500 ft
Dew Point 50 °F
Humidity 49%
Rainfall 0.00 in
Snow Depth Not available.
UV 9 out of 12
Pollen 9.80 out of 12
Air Quality Not available.
Flu Activity Local Activity
METAR KOLU 281935Z AUTO 33011G18KT 10SM FEW055 21/06 A3018 RMK AO1

More Conditions Fewer Conditions

10-Day Weather Forecast

Almanac

Astronomy

Apr. 28, 2015 Rise Set
Actual Time
Civil Twilight
Nautical Twilight
Astronomical Twilight
Moon
Length of Visible Light
Length of Day
Tomorrow will be .
, % of the Moon is Illuminated

Today's Extremes

State Highs State Lows

Community

WunderPhotos

Upload Photos

1,817,741 photos uploaded!

WunderBlogs® & News

Nearby

Air Quality

  Air Quality AQ Index Pollutant
Not available.

Snow Depth

Station Depth Elevation

Earthquake Activity

City Distance Mag. Time & Date
Minimum magnitude displayed is 2.5.

Coastal Water Temperatures

Place Temperature

Stations

Nearby Weather Stations

Station Location Temp. Windchill Dew Point Humidity Wind Precip. Elev Updated Type